メインページ
METAR-TAF:

METAR-TAF

空港 :

ロマン・トメトゥチェル国際空港

コロール, バベルダオブ島, パラオ

緯度: 07-22N, 経度: 134-32E, 海抜: 54m

現時点の気象観測

当レポートは1時間2分前の05:50(UTC)に作成
西の風 14kt、最大20ktの突風を伴う
気温 27°C
湿度 84%
気圧 1007 hPa
視程: 22.5km
高度1500ftの千切れ雲あり, 積乱雲.
高度11000ftの千切れ雲あり
高度30000ftの曇り

METAR: PTRO 150550Z 28014G20KT 14SM BKN015CB BKN110 OVC300 27/24 A2973 RMK CB ALQDS

時間: 15:52 (06:52 UTC)

予報

当レポートは1時間11分前の05:41(UTC)に作成
予報は15日の 06時(UTC)から 16日の 06時(UTC)まで有効
西の風 11kt
視程: 10km
高度1600ftの雲は散在している
高度4000ftの千切れ雲あり
高度11000ftの曇り
近辺でにわか雨
15日の 06時(UTC)から 15日の 10時(UTC)まで一時的に
西の風 11kt、最大20ktの突風を伴う
高度1500ftの千切れ雲あり

TAF: PTRO 150541Z 1506/1606 28011KT P6SM VCSH SCT016 BKN040 OVC110 TEMPO 1506/1510 28011G20KT BKN015

4,000以上の空港の気象観測と天気予報(METAR報とTAF報)

利用可能な観測所は地図上に黄色い丸と赤い丸で示す。

丸の上にカーソルを重ねると観測所名を参照できる。

次にクリックすると気象観測と天気予報を参照できる。

マップの切り替え:黒色「×」印の緑ボタンをクリックして拡大、「-」印の緑ボタンをクリックして縮小、緑色の三角印をクリックして隣りの地図に切り替え


METAR-TAF: